Главная страница
METAR-TAF:

METAR-TAF

Аэропорты :

Ronneby, Швеция

широта: 56-16N, долгота: 015-17E, высота над уровнем моря: 58 м

Текущие метеонаблюдения

Эта сводка был подготовлена 31 минут назад, в 15:20 UTC
Ветер 2 Узел переменных направлений
Температура 15°C
Влажность 94%
Давление 1004 hPa
Видимость 10 км и более
дождь,

METAR: ESDF 221520Z AUTO VRB02KT 9999 RA OVC005/// 15/14 Q1004

Время: 17:51 (15:51 UTC)

Прогноз

Эта сводка был подготовлена 4 часа и 21 минут назад, в 11:30 UTC
Прогноз действительный с 22-го 12 UTC до 22-го 14 UTC
Ветер 10 Узел от восточно-северо-восточный
Видимость 10 км и более
Рассеянная облачность на высоте 1200 фута
временами
С 22-го 12 UTC до 22-го 14 UTC
Видимость: 3500 м
Рассеянная облачность на высоте 700 фута
дождь,

TAF: ESDF 221130Z 2212/2214 06010KT 9999 BKN012 TEMPO 2212/2214 3500 RA BKN007

Метеонаблюдения и прогнозы для более 4000 аэропортов (сводки METAR и TAF).

Имеющиеся станции представлены на карте желтыми и красными точками.

Чтобы увидеть название станции, наведите на нее мышь.

Затем щелкните, чтобы увидеть метеонаблюдения и метеопрогнозы.

Управление картой: чтобы увеличить масштаб, щелкните зеленые кнопки с черным крестиком; чтобы уменьшить масштаб, щелкните зеленую кнопку с тире; для просмотра соседних карт щелкайте зеленые стрелки.


METAR-TAF: